Running Water, South Dakota
Current Conditions -  °F | °C
As of 12:35 PM on Thursday 23 Oct 2014 (Local Time) from KYKN Reporting Station
Clear Clear  
Wind Chill: 17°   Ceiling: Unl
Heat Index: 17°   Visibility: 10mi
Dew Point: 11°   Wind: 6mph
Humidity: 68%   Direction: 150°SSE
Pressure: 30.03"   Gusts: NA
Location:  42.8823°N, 97.9973°W
Report Text: KYKN 231735Z AUTO 15005KT 10SM CLR 17/11 A3003 RMK AO1
Loading
Personal Weather Stations






























Interactive Weather Map
Tropical Storm Tracking
New forecast layout! Learn more

10-Day Weather Forecast

Advertisements
Track Severe Weather on mobile